createdAt,value
2019-02-26T00:01:23.460Z,103424.55
2019-02-26T00:03:52.392Z,103421.39
2019-02-26T00:06:24.886Z,103423.20
2019-02-26T00:08:54.110Z,103420.96
2019-02-26T00:11:26.363Z,103413.25
2019-02-26T00:13:56.767Z,103415.99
2019-02-26T00:16:25.528Z,103418.08
2019-02-26T00:18:56.225Z,103420.40
2019-02-26T00:21:26.413Z,103421.74
2019-02-26T00:23:56.728Z,103421.34
2019-02-26T00:26:25.934Z,103424.75
2019-02-26T00:28:56.757Z,103426.63
2019-02-26T00:31:28.156Z,103432.68
2019-02-26T00:33:57.282Z,103428.80
2019-02-26T00:36:27.187Z,103429.87
2019-02-26T00:38:58.450Z,103431.30
2019-02-26T00:41:29.062Z,103438.20
2019-02-26T00:43:59.932Z,103436.70
2019-02-26T00:46:32.439Z,103447.94
2019-02-26T00:49:03.026Z,103445.34
2019-02-26T00:51:32.309Z,103432.50
2019-02-26T00:54:02.006Z,103424.36
2019-02-26T00:56:34.048Z,103427.20
2019-02-26T00:59:03.462Z,103424.94
2019-02-26T01:01:32.686Z,103420.01
2019-02-26T01:04:01.933Z,103432.14
2019-02-26T01:06:33.434Z,103440.06
2019-02-26T01:09:04.129Z,103434.89
2019-02-26T01:11:33.102Z,103431.38
2019-02-26T01:14:02.367Z,103423.61
2019-02-26T01:16:31.602Z,103420.24
2019-02-26T01:19:00.821Z,103415.97
2019-02-26T01:21:31.153Z,103421.83
2019-02-26T01:24:01.733Z,103423.69
2019-02-26T01:26:31.997Z,103416.75
2019-02-26T01:29:01.281Z,103408.63
2019-02-26T01:31:32.095Z,103408.30
2019-02-26T01:34:01.451Z,103407.36
2019-02-26T01:36:30.686Z,103403.27
2019-02-26T01:38:59.960Z,103399.74
2019-02-26T01:41:29.195Z,103393.59
2019-02-26T01:43:58.424Z,103380.94
2019-02-26T01:46:27.670Z,103376.51
2019-02-26T01:48:57.558Z,103371.91
2019-02-26T01:51:28.631Z,103368.62
2019-02-26T01:53:57.972Z,103367.02
2019-02-26T01:56:27.219Z,103362.55
2019-02-26T01:58:59.327Z,103370.73
2019-02-26T02:01:27.395Z,103377.52
2019-02-26T02:03:56.599Z,103383.23
2019-02-26T02:06:25.848Z,103371.64
2019-02-26T02:08:55.802Z,103368.17
2019-02-26T02:11:28.196Z,103369.44
2019-02-26T02:13:55.968Z,103376.84
2019-02-26T02:16:28.001Z,103371.47
2019-02-26T02:18:58.172Z,103368.20
2019-02-26T02:21:30.445Z,103367.36
2019-02-26T02:23:58.101Z,103372.85
2019-02-26T02:26:27.359Z,103371.38
2019-02-26T02:28:56.593Z,103369.22
2019-02-26T02:31:30.319Z,103373.41
2019-02-26T02:33:56.775Z,103362.37
2019-02-26T02:36:26.574Z,103353.31
2019-02-26T02:38:56.011Z,103345.69
2019-02-26T02:41:25.208Z,103358.62
2019-02-26T02:43:54.415Z,103349.55
2019-02-26T02:46:23.665Z,103344.17
2019-02-26T02:48:52.918Z,103343.06
2019-02-26T02:51:22.151Z,103348.77
2019-02-26T02:53:54.155Z,103348.09
2019-02-26T02:56:22.343Z,103346.60
2019-02-26T02:58:51.765Z,103336.83
2019-02-26T03:01:22.955Z,103342.13
2019-02-26T03:03:53.794Z,103347.45
2019-02-26T03:06:24.223Z,103344.63
2019-02-26T03:08:53.948Z,103343.19
2019-02-26T03:11:23.302Z,103345.30
2019-02-26T03:13:53.841Z,103344.31
2019-02-26T03:16:25.077Z,103333.69
2019-02-26T03:18:54.134Z,103338.35
2019-02-26T03:21:24.822Z,103346.13
2019-02-26T03:23:54.369Z,103350.23
2019-02-26T03:26:25.864Z,103354.70
2019-02-26T03:28:54.609Z,103343.61
2019-02-26T03:31:28.800Z,103337.22
2019-02-26T03:34:00.083Z,103341.55
2019-02-26T03:36:25.756Z,103348.17
2019-02-26T03:38:57.271Z,103360.69
2019-02-26T03:41:28.309Z,103356.10
2019-02-26T03:43:58.473Z,103353.65
2019-02-26T03:46:27.856Z,103343.91
2019-02-26T03:48:57.092Z,103340.75
2019-02-26T03:51:26.322Z,103351.03
2019-02-26T03:53:55.548Z,103342.13
2019-02-26T03:56:24.873Z,103344.66
2019-02-26T03:58:57.074Z,103347.28
2019-02-26T04:01:25.127Z,103339.13
2019-02-26T04:03:55.106Z,103335.11
2019-02-26T04:06:25.312Z,103337.86
2019-02-26T04:08:55.942Z,103337.39
2019-02-26T04:11:27.686Z,103337.95
2019-02-26T04:13:56.739Z,103343.75
2019-02-26T04:16:26.065Z,103348.19
2019-02-26T04:18:55.277Z,103345.16
2019-02-26T04:21:25.971Z,103344.14
2019-02-26T04:23:55.208Z,103345.27
2019-02-26T04:27:11.748Z,103349.36
2019-02-26T04:30:06.310Z,103351.51
2019-02-26T04:33:20.270Z,103354.45
2019-02-26T04:36:16.889Z,103357.72
2019-02-26T04:39:16.306Z,103351.84
2019-02-26T04:41:57.956Z,103360.98
2019-02-26T04:45:10.647Z,103367.52
2019-02-26T04:47:40.929Z,103371.30
2019-02-26T04:50:10.185Z,103363.52
2019-02-26T04:52:41.224Z,103365.50
2019-02-26T04:55:10.365Z,103374.55
2019-02-26T04:57:42.416Z,103367.39
2019-02-26T05:00:10.822Z,103375.09
2019-02-26T05:02:40.036Z,103377.23
2019-02-26T05:05:09.365Z,103375.34
2019-02-26T05:07:41.332Z,103375.87
2019-02-26T05:10:09.669Z,103376.91
2019-02-26T05:12:40.177Z,103383.38
2019-02-26T05:15:13.965Z,103383.34
2019-02-26T05:17:40.472Z,103383.99
2019-02-26T05:20:12.978Z,103383.20
2019-02-26T05:22:40.766Z,103383.06
2019-02-26T05:25:13.991Z,103383.13
2019-02-26T05:27:42.825Z,103383.08
2019-02-26T05:30:13.905Z,103384.77
2019-02-26T05:32:42.972Z,103380.58
2019-02-26T05:35:14.497Z,103389.33
2019-02-26T05:37:43.198Z,103397.01
2019-02-26T05:40:15.325Z,103396.25
2019-02-26T05:42:43.410Z,103393.20
2019-02-26T05:45:12.689Z,103395.16
2019-02-26T05:47:43.047Z,103391.44
2019-02-26T05:50:16.176Z,103404.30
2019-02-26T05:52:43.825Z,103402.46
2019-02-26T05:55:14.600Z,103400.95
2019-02-26T05:57:44.042Z,103392.39
2019-02-26T06:00:18.234Z,103392.31
2019-02-26T06:02:48.537Z,103404.67
2019-02-26T06:05:18.377Z,103406.56
2019-02-26T06:07:47.569Z,103396.63
2019-02-26T06:10:18.889Z,103399.73
2019-02-26T06:12:47.831Z,103401.03
2019-02-26T06:15:17.054Z,103405.74
2019-02-26T06:17:48.120Z,103407.56
2019-02-26T06:20:19.681Z,103405.04
2019-02-26T06:22:48.915Z,103409.14
2019-02-26T06:25:23.651Z,103405.08
2019-02-26T06:27:49.130Z,103402.30
2019-02-26T06:30:18.527Z,103404.48
2019-02-26T06:32:47.794Z,103405.19
2019-02-26T06:35:19.397Z,103402.25
2019-02-26T06:37:48.146Z,103403.29
2019-02-26T06:40:17.435Z,103410.94
2019-02-26T06:42:46.702Z,103408.35
2019-02-26T06:45:16.797Z,103409.00
2019-02-26T06:47:48.606Z,103411.53
2019-02-26T06:50:18.815Z,103413.66
2019-02-26T06:52:50.578Z,103412.17
2019-02-26T06:55:19.308Z,103413.59
2019-02-26T06:57:50.914Z,103401.45
2019-02-26T07:00:23.849Z,103402.97
2019-02-26T07:02:50.526Z,103397.95
2019-02-26T07:05:23.863Z,103398.97
2019-02-26T07:07:54.175Z,103399.39
2019-02-26T07:10:26.014Z,103397.18
2019-02-26T07:12:52.655Z,103410.25
2019-02-26T07:15:21.894Z,103406.00
2019-02-26T07:17:51.140Z,103401.36
2019-02-26T07:20:20.367Z,103399.22
2019-02-26T07:22:51.632Z,103396.70
2019-02-26T07:25:20.623Z,103391.23
2019-02-26T07:27:51.384Z,103387.06
2019-02-26T07:30:20.871Z,103375.70
2019-02-26T07:32:50.145Z,103370.97
2019-02-26T07:35:19.401Z,103367.52
2019-02-26T07:37:48.720Z,103369.52
2019-02-26T07:40:18.706Z,103368.78
2019-02-26T07:42:49.225Z,103380.30
2019-02-26T07:45:21.907Z,103391.70
2019-02-26T07:47:51.458Z,103386.05
2019-02-26T07:50:20.632Z,103382.75
2019-02-26T07:52:52.040Z,103385.98
2019-02-26T07:55:20.853Z,103386.17
2019-02-26T07:57:51.232Z,103387.20
2019-02-26T08:00:22.299Z,103390.33
2019-02-26T08:02:54.015Z,103388.98
2019-02-26T08:05:25.724Z,103389.78
2019-02-26T08:07:56.689Z,103384.28
2019-02-26T08:10:25.912Z,103379.87
2019-02-26T08:12:56.625Z,103384.20
2019-02-26T08:15:27.988Z,103382.85
2019-02-26T08:17:58.449Z,103377.39
2019-02-26T08:20:30.222Z,103382.57
2019-02-26T08:23:01.315Z,103373.27
2019-02-26T08:25:30.344Z,103374.83
2019-02-26T08:28:01.324Z,103372.56
2019-02-26T08:30:30.663Z,103372.03
2019-02-26T08:33:04.162Z,103373.78
2019-02-26T08:35:30.909Z,103372.96
2019-02-26T08:38:00.178Z,103377.50
2019-02-26T08:40:29.460Z,103374.41
2019-02-26T08:42:58.687Z,103367.15
2019-02-26T08:45:28.138Z,103373.77
2019-02-26T08:47:57.365Z,103375.25
2019-02-26T08:50:30.688Z,103365.29
2019-02-26T08:52:58.465Z,103359.33
2019-02-26T08:55:27.854Z,103374.44
2019-02-26T08:57:57.118Z,103372.20
2019-02-26T09:00:26.390Z,103369.27
2019-02-26T09:02:56.649Z,103370.51
2019-02-26T09:05:29.242Z,103367.70
2019-02-26T09:07:57.505Z,103368.68
2019-02-26T09:10:26.774Z,103370.55
2019-02-26T09:12:56.015Z,103374.55
2019-02-26T09:15:25.301Z,103374.96
2019-02-26T09:17:54.607Z,103378.23
2019-02-26T09:20:23.873Z,103376.30
2019-02-26T09:22:54.579Z,103370.54
2019-02-26T09:25:26.117Z,103369.83
2019-02-26T09:27:55.086Z,103385.33
2019-02-26T09:30:24.357Z,103376.98
2019-02-26T09:32:53.648Z,103375.17
2019-02-26T09:35:26.887Z,103371.09
2019-02-26T09:37:56.383Z,103369.22
2019-02-26T09:40:26.609Z,103375.67
2019-02-26T09:42:58.143Z,103373.31
2019-02-26T09:45:30.012Z,103372.72
2019-02-26T09:47:58.316Z,103370.66
2019-02-26T09:50:27.590Z,103365.72
2019-02-26T09:52:59.157Z,103364.03
2019-02-26T09:55:29.614Z,103363.99
2019-02-26T09:57:58.871Z,103364.02
2019-02-26T10:00:29.525Z,103364.09
2019-02-26T10:02:58.983Z,103369.89
2019-02-26T10:05:28.253Z,103364.63
2019-02-26T10:07:59.999Z,103362.94
2019-02-26T10:10:31.092Z,103359.55
2019-02-26T10:13:02.042Z,103355.47
2019-02-26T10:15:32.359Z,103352.00
2019-02-26T10:18:04.025Z,103357.36
2019-02-26T10:20:32.935Z,103356.18
2019-02-26T10:23:04.251Z,103352.80
2019-02-26T10:25:34.944Z,103360.45
2019-02-26T10:28:08.740Z,103353.12
2019-02-26T10:30:38.291Z,103353.16
2019-02-26T10:33:08.351Z,103359.23
2019-02-26T10:35:39.692Z,103353.56
2019-02-26T10:38:11.520Z,103362.19
2019-02-26T10:40:50.626Z,103359.95
2019-02-26T10:43:10.545Z,103363.12
2019-02-26T10:45:42.451Z,103354.92
2019-02-26T10:48:10.833Z,103353.81
2019-02-26T10:50:42.521Z,103351.29
2019-02-26T10:53:13.785Z,103353.25
2019-02-26T10:55:42.310Z,103353.03
2019-02-26T10:58:13.209Z,103346.45
2019-02-26T11:00:43.242Z,103351.87
2019-02-26T11:03:14.854Z,103351.42
2019-02-26T11:05:45.222Z,103349.09
2019-02-26T11:08:14.525Z,103351.73
2019-02-26T11:10:44.905Z,103348.65
2019-02-26T11:13:15.880Z,103353.30
2019-02-26T11:15:48.250Z,103343.76
2019-02-26T11:18:18.042Z,103347.33
2019-02-26T11:20:50.156Z,103343.08
2019-02-26T11:23:18.781Z,103340.66
2019-02-26T11:25:48.024Z,103343.22
2019-02-26T11:28:17.270Z,103342.00
2019-02-26T11:30:49.039Z,103337.47
2019-02-26T11:33:17.588Z,103335.14
2019-02-26T11:35:48.905Z,103338.61
2019-02-26T11:38:19.510Z,103326.39
2019-02-26T11:40:48.782Z,103326.67
2019-02-26T11:43:22.563Z,103337.28
2019-02-26T11:45:49.131Z,103320.99
2019-02-26T11:48:20.658Z,103322.25
2019-02-26T11:50:49.402Z,103318.97
2019-02-26T11:53:18.814Z,103314.20
2019-02-26T11:55:51.378Z,103308.88
2019-02-26T11:58:21.814Z,103302.72
2019-02-26T12:00:52.634Z,103296.99
2019-02-26T12:03:24.894Z,103294.37
2019-02-26T12:05:54.200Z,103296.08
2019-02-26T12:08:25.749Z,103296.16
2019-02-26T12:10:58.010Z,103291.27
2019-02-26T12:13:27.720Z,103298.88
2019-02-26T12:15:57.074Z,103290.52
2019-02-26T12:18:26.318Z,103295.25
2019-02-26T12:20:55.568Z,103291.81
2019-02-26T12:23:24.786Z,103289.20
2019-02-26T12:25:55.512Z,103287.81
2019-02-26T12:28:26.049Z,103284.30
2019-02-26T12:30:58.398Z,103281.61
2019-02-26T12:33:27.070Z,103276.25
2019-02-26T12:35:59.000Z,103272.30
2019-02-26T12:38:27.264Z,103278.07
2019-02-26T12:40:56.568Z,103270.10
2019-02-26T12:43:25.829Z,103266.08
2019-02-26T12:45:56.606Z,103251.89
2019-02-26T12:48:26.077Z,103245.62
2019-02-26T12:50:57.763Z,103245.62
2019-02-26T12:53:26.321Z,103234.48
2019-02-26T12:55:56.635Z,103241.62
2019-02-26T12:58:27.879Z,103240.72
2019-02-26T13:00:57.315Z,103230.97
2019-02-26T13:03:26.517Z,103226.03
2019-02-26T13:05:55.773Z,103229.12
2019-02-26T13:08:25.159Z,103223.76
2019-02-26T13:10:57.779Z,103225.06
2019-02-26T13:13:25.450Z,103221.94
2019-02-26T13:15:54.724Z,103218.28
2019-02-26T13:18:23.961Z,103217.84
2019-02-26T13:20:59.469Z,103213.46
2019-02-26T13:23:24.165Z,103210.80
2019-02-26T13:25:53.457Z,103209.89
2019-02-26T13:28:29.276Z,103201.42
2019-02-26T13:30:53.725Z,103202.22
2019-02-26T13:33:27.506Z,103200.13
2019-02-26T13:36:00.422Z,103197.34
2019-02-26T13:38:34.003Z,103187.25
2019-02-26T13:41:19.914Z,103182.28
2019-02-26T13:43:28.625Z,103181.94
2019-02-26T13:45:57.971Z,103177.88
2019-02-26T13:48:27.276Z,103172.91
2019-02-26T13:50:56.741Z,103171.64
2019-02-26T13:53:26.022Z,103165.91
2019-02-26T13:55:55.249Z,103157.30
2019-02-26T13:58:24.571Z,103161.80
2019-02-26T14:00:53.813Z,103159.98
2019-02-26T14:03:23.170Z,103151.02
2019-02-26T14:05:52.407Z,103150.62
2019-02-26T14:08:21.684Z,103150.98
2019-02-26T14:10:50.974Z,103145.64
2019-02-26T14:13:20.429Z,103141.64
2019-02-26T14:15:49.719Z,103139.93
2019-02-26T14:18:19.043Z,103140.88
2019-02-26T14:20:48.282Z,103150.10
2019-02-26T14:23:17.637Z,103140.28
2019-02-26T14:25:46.963Z,103135.50
2019-02-26T14:28:16.220Z,103139.42
2019-02-26T14:30:45.528Z,103133.55
2019-02-26T14:33:14.918Z,103127.36
2019-02-26T14:35:44.173Z,103130.47
2019-02-26T14:38:13.481Z,103125.14
2019-02-26T14:40:42.762Z,103120.03
2019-02-26T14:46:49.586Z,103127.77
2019-02-26T14:49:19.076Z,103122.83
2019-02-26T14:51:48.335Z,103115.72
2019-02-26T14:54:17.747Z,103114.37
2019-02-26T14:56:47.045Z,103105.41
2019-02-26T14:59:16.389Z,103107.73
2019-02-26T15:01:45.728Z,103114.48
2019-02-26T15:04:14.939Z,103109.16
2019-02-26T15:06:44.292Z,103104.90
2019-02-26T15:09:13.524Z,103103.47
2019-02-26T15:11:42.808Z,103095.38
2019-02-26T15:14:12.108Z,103096.18
2019-02-26T15:16:41.345Z,103089.80
2019-02-26T15:19:10.602Z,103097.54
2019-02-26T15:21:39.942Z,103096.77
2019-02-26T15:24:09.432Z,103094.06
2019-02-26T15:26:38.737Z,103088.23
2019-02-26T15:29:07.987Z,103088.70
2019-02-26T15:31:37.317Z,103088.39
2019-02-26T15:34:06.616Z,103088.77
2019-02-26T15:36:36.089Z,103085.64
2019-02-26T15:39:06.471Z,103085.64
2019-02-26T15:41:35.746Z,103085.22
2019-02-26T15:44:05.070Z,103083.91
2019-02-26T15:46:37.783Z,103083.95
2019-02-26T15:49:07.675Z,103078.98
2019-02-26T15:51:37.065Z,103085.70
2019-02-26T15:54:06.297Z,103079.91
2019-02-26T15:56:35.649Z,103068.91
2019-02-26T15:59:05.307Z,103073.42
2019-02-26T16:01:34.584Z,103068.52
2019-02-26T16:04:03.880Z,103065.45
2019-02-26T16:06:33.178Z,103070.75
2019-02-26T16:09:02.497Z,103068.55
2019-02-26T16:11:31.844Z,103065.91
2019-02-26T16:14:01.216Z,103060.00
2019-02-26T16:16:30.508Z,103061.90
2019-02-26T16:19:00.731Z,103066.34
2019-02-26T16:21:30.500Z,103064.59
2019-02-26T16:23:59.822Z,103069.97
2019-02-26T16:26:29.102Z,103070.88
2019-02-26T16:29:00.918Z,103065.99
2019-02-26T16:31:29.937Z,103071.39
2019-02-26T16:33:59.938Z,103072.69
2019-02-26T16:36:31.724Z,103075.38
2019-02-26T16:39:00.178Z,103073.20
2019-02-26T16:41:29.456Z,103075.41
2019-02-26T16:43:58.738Z,103069.15
2019-02-26T16:46:28.059Z,103069.17
2019-02-26T16:48:57.330Z,103073.14
2019-02-26T16:51:26.656Z,103069.12
2019-02-26T16:53:55.967Z,103066.03
2019-02-26T16:56:25.223Z,103074.44
2019-02-26T16:58:54.710Z,103080.64
2019-02-26T17:01:24.097Z,103075.30
2019-02-26T17:03:53.386Z,103069.02
2019-02-26T17:06:22.701Z,103074.36
2019-02-26T17:08:51.970Z,103075.72
2019-02-26T17:11:21.446Z,103078.79
2019-02-26T17:13:50.691Z,103076.11
2019-02-26T17:16:20.146Z,103079.16
2019-02-26T17:18:49.535Z,103076.15
2019-02-26T17:21:18.834Z,103080.87
2019-02-26T17:23:48.271Z,103084.80
2019-02-26T17:26:17.570Z,103080.29
2019-02-26T17:28:46.920Z,103084.71
2019-02-26T17:31:16.276Z,103082.45
2019-02-26T17:33:46.729Z,103086.31
2019-02-26T17:36:16.486Z,103081.86
2019-02-26T17:38:45.737Z,103083.00
2019-02-26T17:41:15.025Z,103083.13
2019-02-26T17:43:44.290Z,103083.59
2019-02-26T17:46:13.541Z,103086.53
2019-02-26T17:48:43.708Z,103086.05
2019-02-26T17:51:13.157Z,103086.48
2019-02-26T17:53:42.409Z,103083.77
2019-02-26T17:56:11.795Z,103076.06
2019-02-26T17:58:41.720Z,103074.98
2019-02-26T18:01:12.096Z,103076.30
2019-02-26T18:03:44.576Z,103087.82
2019-02-26T18:06:13.162Z,103091.33
2019-02-26T18:08:42.452Z,103089.48
2019-02-26T18:11:11.730Z,103089.22
2019-02-26T18:13:41.079Z,103089.72
2019-02-26T18:16:10.335Z,103083.63
2019-02-26T18:18:42.746Z,103083.36
2019-02-26T18:21:11.101Z,103080.91
2019-02-26T18:23:40.384Z,103083.45
2019-02-26T18:26:09.669Z,103074.91
2019-02-26T18:28:38.973Z,103087.03
2019-02-26T18:31:08.350Z,103089.44
2019-02-26T18:33:37.939Z,103086.42
2019-02-26T18:36:07.208Z,103083.59
2019-02-26T18:38:36.490Z,103083.15
2019-02-26T18:41:05.808Z,103081.35
2019-02-26T18:43:35.073Z,103077.53
2019-02-26T18:46:04.403Z,103083.55
2019-02-26T18:48:33.684Z,103081.23
2019-02-26T18:51:03.056Z,103083.63
2019-02-26T18:53:32.341Z,103079.44
2019-02-26T18:56:03.995Z,103080.77
2019-02-26T18:58:32.665Z,103083.13
2019-02-26T19:01:01.922Z,103077.94
2019-02-26T19:03:31.201Z,103076.70
2019-02-26T19:06:03.659Z,103073.45
2019-02-26T19:08:34.625Z,103080.27
2019-02-26T19:11:04.221Z,103077.78
2019-02-26T19:13:35.621Z,103081.48
2019-02-26T19:16:04.750Z,103074.13
2019-02-26T19:18:35.756Z,103072.30
2019-02-26T19:21:05.301Z,103079.58
2019-02-26T19:23:34.607Z,103073.21
2019-02-26T19:26:03.945Z,103070.73
2019-02-26T19:28:37.665Z,103074.00
2019-02-26T19:31:09.343Z,103081.46
2019-02-26T19:33:38.227Z,103069.47
2019-02-26T19:36:07.641Z,103083.98
2019-02-26T19:38:36.986Z,103079.32
2019-02-26T19:41:12.375Z,103080.33
2019-02-26T19:43:40.324Z,103085.78
2019-02-26T19:46:10.596Z,103074.81
2019-02-26T19:48:40.305Z,103077.31
2019-02-26T19:51:09.658Z,103074.39
2019-02-26T19:53:38.955Z,103070.53
2019-02-26T19:56:08.290Z,103060.99
2019-02-26T19:58:40.620Z,103057.02
2019-02-26T20:01:08.698Z,103056.70
2019-02-26T20:03:40.212Z,103049.47
2019-02-26T20:06:09.345Z,103050.31
2019-02-26T20:08:38.755Z,103053.12
2019-02-26T20:11:08.136Z,103051.15
2019-02-26T20:13:42.079Z,103051.09
2019-02-26T20:16:08.623Z,103053.19
2019-02-26T20:18:37.977Z,103049.73
2019-02-26T20:21:07.319Z,103047.41
2019-02-26T20:23:36.691Z,103050.37
2019-02-26T20:26:06.464Z,103056.73
2019-02-26T20:28:35.999Z,103053.74
2019-02-26T20:31:05.384Z,103043.06
2019-02-26T20:33:34.778Z,103041.64
2019-02-26T20:36:04.096Z,103042.66
2019-02-26T20:38:35.293Z,103043.34
2019-02-26T20:41:04.575Z,103048.33
2019-02-26T20:43:36.389Z,103038.20
2019-02-26T20:46:04.915Z,103033.22
2019-02-26T20:48:36.552Z,103032.87
2019-02-26T20:51:05.394Z,103035.89
2019-02-26T20:53:36.634Z,103043.28
2019-02-26T20:56:05.914Z,103041.88
2019-02-26T20:58:35.349Z,103041.02
2019-02-26T21:01:04.642Z,103039.87
2019-02-26T21:03:34.005Z,103037.09
2019-02-26T21:06:03.592Z,103035.80
2019-02-26T21:08:32.942Z,103024.47
2019-02-26T21:11:02.329Z,103031.86
2019-02-26T21:13:34.651Z,103029.33
2019-02-26T21:16:02.799Z,103029.89
2019-02-26T21:18:32.105Z,103036.37
2019-02-26T21:21:01.514Z,103028.09
2019-02-26T21:23:32.516Z,103028.74
2019-02-26T21:26:01.967Z,103028.91
2019-02-26T21:28:33.308Z,103031.08
2019-02-26T21:31:02.353Z,103032.67
2019-02-26T21:33:31.711Z,103031.41
2019-02-26T21:36:01.031Z,103022.42
2019-02-26T21:38:30.327Z,103028.47
2019-02-26T21:40:59.682Z,103029.30
2019-02-26T21:43:28.997Z,103029.30
2019-02-26T21:45:58.432Z,103023.17
2019-02-26T21:48:27.677Z,103021.33
2019-02-26T21:50:57.002Z,103026.09
2019-02-26T21:53:26.277Z,103028.31
2019-02-26T21:55:55.774Z,103026.87
2019-02-26T21:58:26.834Z,103025.47
2019-02-26T22:00:56.134Z,103024.55
2019-02-26T22:03:25.407Z,103024.17
2019-02-26T22:05:54.807Z,103017.33
2019-02-26T22:08:24.718Z,103016.84
2019-02-26T22:10:54.617Z,103019.15
2019-02-26T22:13:23.967Z,103025.05
2019-02-26T22:15:53.275Z,103019.98
2019-02-26T22:18:22.599Z,103025.37
2019-02-26T22:20:51.996Z,103019.98
2019-02-26T22:23:21.382Z,103022.01
2019-02-26T22:25:52.533Z,103014.06
2019-02-26T22:28:23.079Z,103013.89
2019-02-26T22:30:55.713Z,103016.00
2019-02-26T22:33:23.549Z,103014.96
2019-02-26T22:35:52.871Z,103009.03
2019-02-26T22:38:22.282Z,103014.02
2019-02-26T22:40:51.543Z,103016.05
2019-02-26T22:43:20.975Z,103012.77
2019-02-26T22:45:50.215Z,103023.03
2019-02-26T22:48:19.556Z,103016.59
2019-02-26T22:50:48.807Z,103014.20
2019-02-26T22:53:18.076Z,103014.56
2019-02-26T22:55:49.592Z,103015.82
2019-02-26T22:58:18.354Z,103016.22
2019-02-26T23:01:30.329Z,103012.54
2019-02-26T23:03:53.530Z,103015.92
2019-02-26T23:06:22.783Z,103015.52
2019-02-26T23:08:52.200Z,103014.16
2019-02-26T23:11:21.896Z,103010.69
2019-02-26T23:13:51.227Z,103007.01
2019-02-26T23:16:20.512Z,103005.02
2019-02-26T23:18:49.809Z,103014.27
2019-02-26T23:21:19.416Z,103016.68
2019-02-26T23:23:48.874Z,103016.83
2019-02-26T23:26:18.169Z,103005.73
2019-02-26T23:28:47.430Z,103006.91
2019-02-26T23:31:17.586Z,102996.17
2019-02-26T23:33:48.587Z,102993.74
2019-02-26T23:36:17.959Z,102995.57
2019-02-26T23:38:47.948Z,102992.09
2019-02-26T23:41:17.216Z,102995.05
2019-02-26T23:43:46.490Z,102987.50
2019-02-26T23:46:15.759Z,102976.97
2019-02-26T23:48:45.019Z,102975.56
2019-02-26T23:51:14.318Z,102977.68
2019-02-26T23:53:43.555Z,102977.27
2019-02-26T23:56:12.888Z,102976.31
2019-02-26T23:58:42.153Z,102978.70
